createdAt,value
2022-08-31T00:01:05.536Z,14.56
2022-08-31T00:03:53.073Z,14.51
2022-08-31T00:06:22.377Z,14.47
2022-08-31T00:08:51.396Z,14.43
2022-08-31T00:11:28.357Z,14.38
2022-08-31T00:14:05.363Z,14.33
2022-08-31T00:16:38.788Z,14.26
2022-08-31T00:19:07.653Z,14.22
2022-08-31T00:21:36.097Z,14.18
2022-08-31T00:24:04.678Z,14.15
2022-08-31T00:26:33.168Z,14.11
2022-08-31T00:29:01.683Z,14.05
2022-08-31T00:31:30.763Z,14.00
2022-08-31T00:33:59.377Z,13.95
2022-08-31T00:36:28.382Z,13.92
2022-08-31T00:38:57.977Z,13.89
2022-08-31T00:41:31.494Z,13.84
2022-08-31T00:44:03.453Z,13.79
2022-08-31T00:46:38.337Z,13.75
2022-08-31T00:49:15.779Z,13.70
2022-08-31T00:51:47.244Z,13.67
2022-08-31T00:54:19.726Z,13.64
2022-08-31T00:56:49.371Z,13.63
2022-08-31T00:59:20.727Z,13.63
2022-08-31T01:01:50.559Z,13.63
2022-08-31T01:04:19.034Z,13.63
2022-08-31T01:06:49.793Z,13.61
2022-08-31T01:09:22.562Z,13.60
2022-08-31T01:11:51.323Z,13.56
2022-08-31T01:14:23.281Z,13.55
2022-08-31T01:16:54.748Z,13.52
2022-08-31T01:19:29.793Z,13.49
2022-08-31T01:22:01.246Z,13.46
2022-08-31T01:24:33.200Z,13.42
2022-08-31T01:27:05.095Z,13.39
2022-08-31T01:29:35.858Z,13.34
2022-08-31T01:32:05.990Z,13.30
2022-08-31T01:34:34.991Z,13.26
2022-08-31T01:37:03.478Z,13.23
2022-08-31T01:39:32.075Z,13.21
2022-08-31T01:42:01.037Z,13.19
2022-08-31T01:44:30.392Z,13.18
2022-08-31T01:46:59.009Z,13.17
2022-08-31T01:49:29.527Z,13.17
2022-08-31T01:51:59.336Z,13.15
2022-08-31T01:54:28.294Z,13.15
2022-08-31T01:56:57.035Z,13.13
2022-08-31T01:59:33.903Z,13.10
2022-08-31T02:02:21.509Z,13.07
2022-08-31T02:04:50.029Z,13.05
2022-08-31T02:07:21.641Z,13.05
2022-08-31T02:09:50.196Z,13.04
2022-08-31T02:12:19.575Z,13.01
2022-08-31T02:14:48.852Z,13.00
2022-08-31T02:17:17.711Z,12.98
2022-08-31T02:19:46.188Z,12.94
2022-08-31T02:22:16.060Z,12.89
2022-08-31T02:24:44.621Z,12.85
2022-08-31T02:27:13.650Z,12.80
2022-08-31T02:29:42.653Z,12.79
2022-08-31T02:32:20.133Z,12.76
2022-08-31T02:34:50.221Z,12.71
2022-08-31T02:37:20.560Z,12.68
2022-08-31T02:39:50.331Z,12.66
2022-08-31T02:42:19.922Z,12.65
2022-08-31T02:44:48.301Z,12.62
2022-08-31T02:47:16.903Z,12.57
2022-08-31T02:50:10.231Z,12.53
2022-08-31T02:52:38.870Z,12.50
2022-08-31T02:55:08.984Z,12.49
2022-08-31T02:57:37.956Z,12.50
2022-08-31T03:00:08.968Z,12.47
2022-08-31T03:02:38.022Z,12.45
2022-08-31T03:05:10.479Z,12.42
2022-08-31T03:07:39.711Z,12.38
2022-08-31T03:10:14.462Z,12.36
2022-08-31T03:12:43.411Z,12.35
2022-08-31T03:15:12.319Z,12.34
2022-08-31T03:17:47.370Z,12.35
2022-08-31T03:20:18.985Z,12.35
2022-08-31T03:22:48.692Z,12.37
2022-08-31T03:25:19.148Z,12.38
2022-08-31T03:27:47.870Z,12.40
2022-08-31T03:30:19.672Z,12.42
2022-08-31T03:33:02.339Z,12.43
2022-08-31T03:35:32.841Z,12.44
2022-08-31T03:38:03.000Z,12.46
2022-08-31T03:40:32.064Z,12.44
2022-08-31T03:43:00.737Z,12.41
2022-08-31T03:45:32.317Z,12.43
2022-08-31T03:48:01.060Z,12.42
2022-08-31T03:50:30.895Z,12.40
2022-08-31T03:53:09.276Z,12.40
2022-08-31T03:55:41.530Z,12.40
2022-08-31T03:58:11.624Z,12.39
2022-08-31T04:00:42.801Z,12.38
2022-08-31T04:03:16.382Z,12.37
2022-08-31T04:06:08.513Z,12.35
2022-08-31T04:08:56.146Z,12.34
2022-08-31T04:11:46.882Z,12.34
2022-08-31T04:14:44.493Z,12.36
2022-08-31T04:17:34.141Z,12.38
2022-08-31T04:20:18.519Z,12.40
2022-08-31T04:22:53.018Z,12.39
2022-08-31T04:25:41.363Z,12.40
2022-08-31T04:28:10.867Z,12.41
2022-08-31T04:30:42.770Z,12.42
2022-08-31T04:33:12.758Z,12.42
2022-08-31T04:35:42.532Z,12.42
2022-08-31T04:38:12.198Z,12.41
2022-08-31T04:40:43.797Z,12.43
2022-08-31T04:43:12.650Z,12.44
2022-08-31T04:45:44.638Z,12.45
2022-08-31T04:48:15.509Z,12.48
2022-08-31T04:50:44.472Z,12.50
2022-08-31T04:53:13.760Z,12.54
2022-08-31T04:55:43.783Z,12.58
2022-08-31T04:58:13.980Z,12.60
2022-08-31T05:00:44.262Z,12.64
2022-08-31T05:03:13.277Z,12.69
2022-08-31T05:05:42.435Z,12.75
2022-08-31T05:08:10.882Z,12.80
2022-08-31T05:10:41.535Z,12.86
2022-08-31T05:13:10.124Z,12.95
2022-08-31T05:15:43.890Z,13.02
2022-08-31T05:18:14.796Z,13.09
2022-08-31T05:20:49.503Z,13.16
2022-08-31T05:23:19.382Z,13.22
2022-08-31T05:25:48.636Z,13.30
2022-08-31T05:28:22.133Z,13.37
2022-08-31T05:30:51.055Z,13.45
2022-08-31T05:33:36.993Z,13.52
2022-08-31T05:36:05.916Z,13.59
2022-08-31T05:38:35.633Z,13.68
2022-08-31T05:41:06.376Z,13.76
2022-08-31T05:43:35.117Z,13.80
2022-08-31T05:46:13.762Z,13.85
2022-08-31T05:48:43.164Z,13.92
2022-08-31T05:51:19.581Z,14.03
2022-08-31T05:53:48.852Z,14.13
2022-08-31T05:56:21.337Z,14.23
2022-08-31T05:58:51.832Z,14.29
2022-08-31T06:01:24.608Z,14.37
2022-08-31T06:04:16.507Z,14.49
2022-08-31T06:06:46.058Z,14.59
2022-08-31T06:09:16.262Z,14.72
2022-08-31T06:11:47.426Z,14.84
2022-08-31T06:14:18.779Z,14.97
2022-08-31T06:16:48.614Z,15.05
2022-08-31T06:19:20.463Z,15.18
2022-08-31T06:21:51.577Z,15.30
2022-08-31T06:24:29.272Z,15.37
2022-08-31T06:26:59.655Z,15.49
2022-08-31T06:29:33.181Z,15.58
2022-08-31T06:32:08.359Z,15.68
2022-08-31T06:34:42.577Z,15.84
2022-08-31T06:37:30.003Z,15.98
2022-08-31T06:40:11.055Z,16.06
2022-08-31T06:42:39.673Z,16.17
2022-08-31T06:45:41.962Z,16.26
2022-08-31T06:48:29.231Z,16.44
2022-08-31T06:50:59.702Z,16.56
2022-08-31T06:53:29.817Z,16.67
2022-08-31T06:56:21.613Z,16.79
2022-08-31T06:59:28.499Z,16.91
2022-08-31T07:02:16.485Z,17.04
2022-08-31T07:04:45.216Z,17.14
2022-08-31T07:07:13.859Z,17.17
2022-08-31T07:09:44.478Z,17.25
2022-08-31T07:12:13.403Z,17.35
2022-08-31T07:14:42.096Z,17.45
2022-08-31T07:17:19.351Z,17.55
2022-08-31T07:19:47.781Z,17.67
2022-08-31T07:22:17.789Z,17.74
2022-08-31T07:24:48.842Z,17.81
2022-08-31T07:27:18.808Z,17.93
2022-08-31T07:29:54.714Z,18.02
2022-08-31T07:32:24.448Z,18.12
2022-08-31T07:34:58.501Z,18.26
2022-08-31T07:37:52.054Z,18.42
2022-08-31T07:40:44.463Z,18.60
2022-08-31T07:43:15.139Z,18.68
2022-08-31T07:45:44.245Z,18.73
2022-08-31T07:48:16.853Z,18.85
2022-08-31T07:51:05.765Z,18.88
2022-08-31T07:53:47.926Z,18.94
2022-08-31T07:56:46.883Z,18.99
2022-08-31T07:59:22.565Z,19.08
2022-08-31T08:01:55.809Z,19.13
2022-08-31T08:04:27.757Z,19.22
2022-08-31T08:07:34.090Z,19.42
2022-08-31T08:10:46.812Z,19.44
2022-08-31T08:13:39.200Z,19.51
2022-08-31T08:16:34.505Z,19.68
2022-08-31T08:19:29.046Z,19.76
2022-08-31T08:21:57.668Z,19.79
2022-08-31T08:24:31.711Z,19.95
2022-08-31T08:27:19.278Z,20.15
2022-08-31T08:29:56.497Z,20.47
2022-08-31T08:32:31.908Z,20.88
2022-08-31T08:35:00.594Z,21.22
2022-08-31T08:37:47.809Z,21.51
2022-08-31T08:40:42.933Z,21.59
2022-08-31T08:43:19.082Z,21.75
2022-08-31T08:45:53.939Z,21.98
2022-08-31T08:48:30.090Z,22.04
2022-08-31T08:51:02.402Z,22.09
2022-08-31T08:53:46.965Z,22.21
2022-08-31T08:56:33.878Z,22.38
2022-08-31T08:59:09.910Z,22.45
2022-08-31T09:01:46.514Z,22.46
2022-08-31T09:04:31.161Z,22.34
2022-08-31T09:07:23.223Z,22.07
2022-08-31T09:10:22.012Z,21.93
2022-08-31T09:13:10.149Z,21.90
2022-08-31T09:16:04.814Z,21.97
2022-08-31T09:18:50.058Z,21.78
2022-08-31T09:21:24.003Z,21.59
2022-08-31T09:24:04.329Z,21.70
2022-08-31T09:26:58.817Z,21.81
2022-08-31T09:29:34.769Z,22.02
2022-08-31T09:32:10.309Z,22.21
2022-08-31T09:34:42.701Z,22.33
2022-08-31T09:37:16.542Z,22.28
2022-08-31T09:39:48.862Z,22.05
2022-08-31T09:42:31.602Z,21.99
2022-08-31T09:45:16.242Z,22.04
2022-08-31T09:47:58.751Z,22.25
2022-08-31T09:50:45.377Z,22.31
2022-08-31T09:53:38.426Z,22.20
2022-08-31T09:56:14.426Z,22.01
2022-08-31T09:58:45.010Z,22.13
2022-08-31T10:01:28.890Z,22.25
2022-08-31T10:04:20.517Z,22.30
2022-08-31T10:07:00.766Z,22.44
2022-08-31T10:09:57.879Z,22.65
2022-08-31T10:12:46.494Z,22.93
2022-08-31T10:15:23.798Z,23.04
2022-08-31T10:18:29.132Z,23.18
2022-08-31T10:21:08.421Z,23.32
2022-08-31T10:23:54.789Z,23.43
2022-08-31T10:26:34.557Z,23.33
2022-08-31T10:29:19.133Z,23.37
2022-08-31T10:31:56.093Z,23.30
2022-08-31T10:34:49.786Z,23.24
2022-08-31T10:37:44.200Z,23.34
2022-08-31T10:40:35.398Z,23.28
2022-08-31T10:43:18.102Z,23.39
2022-08-31T10:45:49.789Z,23.48
2022-08-31T10:48:22.320Z,23.30
2022-08-31T10:51:23.598Z,22.91
2022-08-31T10:53:55.349Z,22.76
2022-08-31T10:56:41.590Z,22.70
2022-08-31T10:59:23.353Z,22.63
2022-08-31T11:02:04.784Z,22.53
2022-08-31T11:04:45.435Z,22.50
2022-08-31T11:07:26.663Z,22.61
2022-08-31T11:10:20.248Z,22.72
2022-08-31T11:12:57.737Z,22.71
2022-08-31T11:15:58.630Z,22.80
2022-08-31T11:18:40.363Z,22.96
2022-08-31T11:21:29.219Z,22.98
2022-08-31T11:24:19.004Z,23.12
2022-08-31T11:26:57.335Z,23.25
2022-08-31T11:29:42.095Z,23.35
2022-08-31T11:32:22.063Z,23.44
2022-08-31T11:34:55.230Z,23.41
2022-08-31T11:37:47.156Z,23.41
2022-08-31T11:40:42.243Z,23.49
2022-08-31T11:43:32.865Z,23.59
2022-08-31T11:46:27.239Z,23.57
2022-08-31T11:48:56.245Z,23.50
2022-08-31T11:51:38.647Z,23.32
2022-08-31T11:54:33.565Z,23.05
2022-08-31T11:57:03.349Z,22.94
2022-08-31T11:59:35.662Z,22.89
2022-08-31T12:02:19.852Z,22.83
2022-08-31T12:04:57.775Z,22.74
2022-08-31T12:07:36.249Z,22.80
2022-08-31T12:10:07.537Z,22.90
2022-08-31T12:12:48.678Z,22.90
2022-08-31T12:15:25.915Z,22.73
2022-08-31T12:18:12.848Z,22.59
2022-08-31T12:21:20.620Z,22.56
2022-08-31T12:23:52.117Z,22.62
2022-08-31T12:26:56.090Z,22.54
2022-08-31T12:29:33.061Z,22.29
2022-08-31T12:32:02.200Z,22.22
2022-08-31T12:34:31.992Z,22.21
2022-08-31T12:37:00.672Z,22.26
2022-08-31T12:39:29.687Z,22.34
2022-08-31T12:42:03.270Z,22.46
2022-08-31T12:44:50.321Z,22.61
2022-08-31T12:47:50.914Z,22.76
2022-08-31T12:50:22.182Z,22.88
2022-08-31T12:53:24.789Z,22.89
2022-08-31T12:56:14.499Z,22.98
2022-08-31T12:59:01.945Z,23.13
2022-08-31T13:01:31.142Z,23.33
2022-08-31T13:04:02.928Z,23.41
2022-08-31T13:06:34.364Z,23.42
2022-08-31T13:09:05.682Z,23.49
2022-08-31T13:11:40.773Z,23.54
2022-08-31T13:14:21.141Z,23.40
2022-08-31T13:17:15.551Z,23.28
2022-08-31T13:19:56.571Z,23.18
2022-08-31T13:22:30.317Z,23.16
2022-08-31T13:25:19.832Z,23.12
2022-08-31T13:27:52.047Z,23.08
2022-08-31T13:30:25.421Z,22.99
2022-08-31T13:32:55.074Z,22.89
2022-08-31T13:35:34.289Z,22.79
2022-08-31T13:38:05.747Z,22.76
2022-08-31T13:40:39.676Z,22.87
2022-08-31T13:43:11.020Z,22.97
2022-08-31T13:45:53.413Z,23.11
2022-08-31T13:48:33.835Z,23.36
2022-08-31T13:51:13.397Z,23.59
2022-08-31T13:53:46.755Z,23.45
2022-08-31T13:56:40.964Z,23.23
2022-08-31T13:59:20.498Z,22.91
2022-08-31T14:01:52.145Z,22.66
2022-08-31T14:04:57.510Z,22.42
2022-08-31T14:07:28.950Z,22.17
2022-08-31T14:10:15.361Z,22.09
2022-08-31T14:13:04.179Z,22.05
2022-08-31T14:15:50.819Z,21.92
2022-08-31T14:18:43.487Z,21.78
2022-08-31T14:21:25.389Z,21.64
2022-08-31T14:24:02.813Z,21.59
2022-08-31T14:26:41.914Z,21.57
2022-08-31T14:29:14.085Z,21.56
2022-08-31T14:31:52.520Z,21.55
2022-08-31T14:34:32.431Z,21.54
2022-08-31T14:37:07.817Z,21.53
2022-08-31T14:39:45.893Z,21.51
2022-08-31T14:42:26.731Z,21.56
2022-08-31T14:45:02.760Z,21.67
2022-08-31T14:47:36.499Z,21.76
2022-08-31T14:50:06.049Z,21.80
2022-08-31T14:52:42.080Z,21.90
2022-08-31T14:55:11.465Z,21.96
2022-08-31T14:57:43.720Z,22.07
2022-08-31T15:00:23.695Z,22.23
2022-08-31T15:02:53.770Z,22.38
2022-08-31T15:05:25.570Z,22.50
2022-08-31T15:07:55.270Z,22.63
2022-08-31T15:10:26.255Z,22.66
2022-08-31T15:12:56.157Z,22.72
2022-08-31T15:15:24.917Z,22.84
2022-08-31T15:17:54.125Z,22.89
2022-08-31T15:20:23.051Z,22.95
2022-08-31T15:22:52.338Z,23.01
2022-08-31T15:25:22.725Z,23.01
2022-08-31T15:27:52.009Z,22.98
2022-08-31T15:30:20.512Z,22.97
2022-08-31T15:32:49.424Z,22.92
2022-08-31T15:35:23.547Z,22.89
2022-08-31T15:37:59.504Z,22.91
2022-08-31T15:40:29.803Z,22.84
2022-08-31T15:43:01.985Z,22.73
2022-08-31T15:45:31.661Z,22.72
2022-08-31T15:48:19.235Z,22.77
2022-08-31T15:51:00.762Z,22.81
2022-08-31T15:53:30.971Z,22.89
2022-08-31T15:56:06.542Z,23.01
2022-08-31T15:58:39.314Z,23.10
2022-08-31T16:01:19.127Z,23.16
2022-08-31T16:03:55.805Z,23.15
2022-08-31T16:06:32.911Z,23.39
2022-08-31T16:09:02.915Z,23.57
2022-08-31T16:11:37.173Z,23.41
2022-08-31T16:14:11.186Z,23.31
2022-08-31T16:16:43.218Z,23.20
2022-08-31T16:19:27.769Z,23.11
2022-08-31T16:22:02.232Z,22.99
2022-08-31T16:24:36.055Z,22.83
2022-08-31T16:27:08.315Z,22.66
2022-08-31T16:29:36.794Z,22.50
2022-08-31T16:32:06.990Z,22.32
2022-08-31T16:34:37.399Z,22.07
2022-08-31T16:37:08.385Z,21.87
2022-08-31T16:39:40.331Z,21.70
2022-08-31T16:42:11.390Z,21.59
2022-08-31T16:44:43.957Z,21.55
2022-08-31T16:47:16.402Z,21.59
2022-08-31T16:49:46.002Z,21.87
2022-08-31T16:52:21.761Z,22.44
2022-08-31T16:54:51.211Z,22.66
2022-08-31T16:57:25.707Z,22.45
2022-08-31T16:59:57.387Z,22.38
2022-08-31T17:02:27.928Z,22.48
2022-08-31T17:05:00.874Z,22.60
2022-08-31T17:07:29.334Z,22.64
2022-08-31T17:10:07.362Z,22.53
2022-08-31T17:12:37.175Z,22.41
2022-08-31T17:15:06.718Z,22.29
2022-08-31T17:17:35.459Z,22.03
2022-08-31T17:20:05.438Z,21.74
2022-08-31T17:22:33.934Z,21.45
2022-08-31T17:25:05.098Z,21.17
2022-08-31T17:27:34.931Z,20.91
2022-08-31T17:30:07.878Z,20.69
2022-08-31T17:32:43.225Z,20.44
2022-08-31T17:35:19.141Z,20.20
2022-08-31T17:37:49.702Z,19.98
2022-08-31T17:40:19.290Z,19.76
2022-08-31T17:42:50.349Z,19.57
2022-08-31T17:45:21.797Z,19.34
2022-08-31T17:47:51.404Z,19.18
2022-08-31T17:50:21.937Z,19.05
2022-08-31T17:52:50.722Z,18.96
2022-08-31T17:55:19.413Z,18.86
2022-08-31T17:57:48.105Z,18.80
2022-08-31T18:00:17.269Z,18.78
2022-08-31T18:02:46.187Z,18.73
2022-08-31T18:05:16.922Z,18.69
2022-08-31T18:07:48.677Z,18.67
2022-08-31T18:10:19.334Z,18.59
2022-08-31T18:12:48.005Z,18.55
2022-08-31T18:15:19.662Z,18.53
2022-08-31T18:17:48.775Z,18.49
2022-08-31T18:20:17.752Z,18.43
2022-08-31T18:22:51.581Z,18.38
2022-08-31T18:25:21.816Z,18.31
2022-08-31T18:27:51.033Z,18.28
2022-08-31T18:30:20.175Z,18.23
2022-08-31T18:32:49.746Z,18.18
2022-08-31T18:35:18.361Z,18.12
2022-08-31T18:37:48.379Z,18.07
2022-08-31T18:40:35.989Z,18.02
2022-08-31T18:43:23.674Z,17.98
2022-08-31T18:45:53.071Z,17.94
2022-08-31T18:48:26.450Z,17.87
2022-08-31T18:50:57.496Z,17.82
2022-08-31T18:53:30.582Z,17.77
2022-08-31T18:56:08.912Z,17.68
2022-08-31T18:58:38.924Z,17.62
2022-08-31T19:01:10.904Z,17.52
2022-08-31T19:03:41.391Z,17.44
2022-08-31T19:06:23.706Z,17.36
2022-08-31T19:08:53.414Z,17.21
2022-08-31T19:11:23.602Z,17.14
2022-08-31T19:13:54.251Z,17.04
2022-08-31T19:16:28.975Z,16.94
2022-08-31T19:18:59.556Z,16.82
2022-08-31T19:21:31.403Z,16.69
2022-08-31T19:24:05.105Z,16.52
2022-08-31T19:26:41.059Z,16.37
2022-08-31T19:29:14.725Z,16.26
2022-08-31T19:31:47.539Z,16.13
2022-08-31T19:34:20.540Z,16.01
2022-08-31T19:36:54.468Z,15.87
2022-08-31T19:39:28.248Z,15.78
2022-08-31T19:42:01.139Z,15.71
2022-08-31T19:47:25.680Z,15.63
2022-08-31T19:49:54.661Z,15.58
2022-08-31T19:52:25.515Z,15.53
2022-08-31T19:54:54.574Z,15.47
2022-08-31T19:57:24.092Z,15.40
2022-08-31T19:59:52.787Z,15.33
2022-08-31T20:02:22.205Z,15.26
2022-08-31T20:04:51.181Z,15.19
2022-08-31T20:07:20.775Z,15.12
2022-08-31T20:09:49.780Z,15.06
2022-08-31T20:12:19.707Z,14.99
2022-08-31T20:14:49.094Z,14.92
2022-08-31T20:17:20.979Z,14.87
2022-08-31T20:19:51.313Z,14.81
2022-08-31T20:22:20.984Z,14.73
2022-08-31T20:24:50.407Z,14.65
2022-08-31T20:27:19.942Z,14.57
2022-08-31T20:29:48.873Z,14.50
2022-08-31T20:32:17.767Z,14.44
2022-08-31T20:34:46.556Z,14.38
2022-08-31T20:37:15.438Z,14.28
2022-08-31T20:39:44.251Z,14.19
2022-08-31T20:42:13.455Z,14.09
2022-08-31T20:44:46.610Z,13.99
2022-08-31T20:47:36.733Z,13.89
2022-08-31T20:50:07.677Z,13.79
2022-08-31T20:52:36.431Z,13.74
2022-08-31T20:55:07.235Z,13.68
2022-08-31T20:57:41.122Z,13.67
2022-08-31T21:00:10.887Z,13.58
2022-08-31T21:02:42.478Z,13.53
2022-08-31T21:08:04.573Z,13.50
2022-08-31T21:10:38.180Z,13.46
2022-08-31T21:13:10.385Z,13.36
2022-08-31T21:15:46.823Z,13.31
2022-08-31T21:18:19.560Z,13.25
2022-08-31T21:20:49.221Z,13.21
2022-08-31T21:23:19.141Z,13.18
2022-08-31T21:25:48.362Z,13.13
2022-08-31T21:28:18.781Z,13.08
2022-08-31T21:30:50.625Z,13.05
2022-08-31T21:33:19.756Z,12.98
2022-08-31T21:35:49.149Z,12.90
2022-08-31T21:38:18.855Z,12.82
2022-08-31T21:40:51.450Z,12.77
2022-08-31T21:43:20.583Z,12.73
2022-08-31T21:46:02.145Z,12.68
2022-08-31T21:48:33.180Z,12.62
2022-08-31T21:51:20.170Z,12.55
2022-08-31T21:53:52.832Z,12.48
2022-08-31T21:56:23.591Z,12.44
2022-08-31T21:58:53.213Z,12.41
2022-08-31T22:01:24.577Z,12.40
2022-08-31T22:03:58.550Z,12.39
2022-08-31T22:06:31.646Z,12.39
2022-08-31T22:09:06.007Z,12.38
2022-08-31T22:11:38.639Z,12.35
2022-08-31T22:14:10.808Z,12.33
2022-08-31T22:16:40.107Z,12.30
2022-08-31T22:19:13.322Z,12.27
2022-08-31T22:21:45.887Z,12.25
2022-08-31T22:24:27.357Z,12.24
2022-08-31T22:27:00.980Z,12.22
2022-08-31T22:29:34.074Z,12.20
2022-08-31T22:32:09.399Z,12.19
2022-08-31T22:34:39.157Z,12.18
2022-08-31T22:37:09.597Z,12.18
2022-08-31T22:39:39.970Z,12.18
2022-08-31T22:42:09.424Z,12.18
2022-08-31T22:44:41.135Z,12.14
2022-08-31T22:47:10.634Z,12.10
2022-08-31T22:49:39.937Z,12.08
2022-08-31T22:52:08.730Z,12.08
2022-08-31T22:54:37.514Z,12.09
2022-08-31T22:57:06.337Z,12.08
2022-08-31T22:59:35.516Z,12.06
2022-08-31T23:02:04.949Z,12.01
2022-08-31T23:04:35.151Z,11.94
2022-08-31T23:07:04.643Z,11.89
2022-08-31T23:09:34.757Z,11.79
2022-08-31T23:12:05.583Z,11.71
2022-08-31T23:14:34.643Z,11.64
2022-08-31T23:17:09.848Z,11.55
2022-08-31T23:19:42.583Z,11.52
2022-08-31T23:22:15.507Z,11.48
2022-08-31T23:24:47.871Z,11.47
2022-08-31T23:27:19.708Z,11.46
2022-08-31T23:29:51.881Z,11.45
2022-08-31T23:32:26.318Z,11.46
2022-08-31T23:34:58.644Z,11.48
2022-08-31T23:37:28.357Z,11.50
2022-08-31T23:40:00.068Z,11.51
2022-08-31T23:42:30.216Z,11.51
2022-08-31T23:44:59.367Z,11.53
2022-08-31T23:47:31.753Z,11.55
2022-08-31T23:50:05.371Z,11.53
2022-08-31T23:52:38.192Z,11.51
2022-08-31T23:55:07.418Z,11.52
2022-08-31T23:57:37.694Z,11.48
